createdAt,value
2018-07-27T00:00:10.605Z,23.70
2018-07-27T00:02:39.091Z,23.70
2018-07-27T00:05:07.557Z,23.70
2018-07-27T00:07:35.662Z,23.70
2018-07-27T00:10:04.266Z,23.60
2018-07-27T00:12:32.375Z,23.50
2018-07-27T00:15:00.470Z,23.60
2018-07-27T00:17:28.599Z,23.50
2018-07-27T00:19:56.746Z,23.60
2018-07-27T00:22:24.885Z,23.60
2018-07-27T00:24:52.990Z,23.60
2018-07-27T00:29:55.633Z,23.60
2018-07-27T00:32:23.939Z,23.60
2018-07-27T00:34:52.170Z,23.60
2018-07-27T00:37:20.353Z,23.60
2018-07-27T00:39:48.728Z,23.50
2018-07-27T00:42:16.883Z,23.50
2018-07-27T00:44:45.011Z,23.50
2018-07-27T00:47:13.149Z,23.40
2018-07-27T00:49:41.312Z,23.40
2018-07-27T00:52:09.426Z,23.30
2018-07-27T00:54:37.527Z,23.20
2018-07-27T00:57:05.811Z,23.20
2018-07-27T00:59:33.918Z,23.10
2018-07-27T01:02:02.039Z,23.10
2018-07-27T01:04:30.165Z,23.10
2018-07-27T01:06:58.310Z,23.00
2018-07-27T01:09:26.419Z,23.00
2018-07-27T01:11:54.694Z,23.00
2018-07-27T01:14:22.831Z,23.00
2018-07-27T01:16:50.958Z,22.90
2018-07-27T01:19:19.091Z,22.90
2018-07-27T01:21:47.219Z,22.90
2018-07-27T01:24:15.382Z,22.90
2018-07-27T01:26:45.670Z,22.90
2018-07-27T01:29:14.582Z,22.80
2018-07-27T01:31:42.734Z,22.80
2018-07-27T01:34:10.886Z,22.70
2018-07-27T01:36:39.018Z,22.70
2018-07-27T01:39:10.222Z,22.60
2018-07-27T01:41:38.342Z,22.60
2018-07-27T01:44:06.490Z,22.60
2018-07-27T01:46:34.623Z,22.60
2018-07-27T01:49:02.746Z,22.60
2018-07-27T01:51:30.991Z,22.60
2018-07-27T01:53:59.153Z,22.50
2018-07-27T01:56:27.299Z,22.50
2018-07-27T01:58:55.472Z,22.40
2018-07-27T02:01:23.619Z,22.40
2018-07-27T02:03:51.776Z,22.40
2018-07-27T02:08:47.889Z,22.30
2018-07-27T02:11:16.141Z,22.30
2018-07-27T02:13:44.270Z,22.20
2018-07-27T02:16:12.413Z,22.20
2018-07-27T02:18:40.564Z,22.20
2018-07-27T02:21:08.699Z,22.20
2018-07-27T02:23:36.851Z,22.20
2018-07-27T02:26:04.910Z,22.00
2018-07-27T02:28:33.037Z,22.00
2018-07-27T02:31:01.171Z,22.00
2018-07-27T02:33:29.282Z,22.00
2018-07-27T02:35:57.410Z,21.90
2018-07-27T02:38:25.548Z,21.80
2018-07-27T02:40:53.661Z,21.70
2018-07-27T02:43:21.786Z,21.70
2018-07-27T02:45:49.887Z,21.60
2018-07-27T02:48:18.063Z,21.60
2018-07-27T02:50:46.190Z,21.60
2018-07-27T02:53:14.295Z,21.60
2018-07-27T02:55:42.579Z,21.60
2018-07-27T02:58:10.692Z,21.50
2018-07-27T03:00:38.809Z,21.50
2018-07-27T03:03:06.955Z,21.50
2018-07-27T03:05:35.062Z,21.50
2018-07-27T03:08:03.201Z,21.50
2018-07-27T03:10:31.331Z,21.50
2018-07-27T03:12:59.486Z,21.50
2018-07-27T03:15:27.582Z,21.40
2018-07-27T03:17:55.705Z,21.30
2018-07-27T03:20:23.839Z,21.20
2018-07-27T03:22:51.959Z,21.20
2018-07-27T03:25:20.092Z,21.20
2018-07-27T03:27:48.182Z,21.20
2018-07-27T03:30:16.303Z,21.20
2018-07-27T03:32:44.410Z,21.10
2018-07-27T03:35:12.539Z,21.10
2018-07-27T03:37:40.626Z,21.00
2018-07-27T03:40:08.748Z,21.10
2018-07-27T03:42:36.850Z,21.00
2018-07-27T03:45:05.128Z,21.00
2018-07-27T03:47:33.230Z,20.90
2018-07-27T03:50:01.353Z,20.90
2018-07-27T03:52:29.450Z,20.80
2018-07-27T03:54:57.678Z,20.80
2018-07-27T03:57:25.795Z,20.80
2018-07-27T03:59:53.918Z,20.80
2018-07-27T04:02:22.087Z,20.80
2018-07-27T04:07:18.091Z,20.70
2018-07-27T04:09:46.174Z,20.70
2018-07-27T04:12:14.263Z,20.70
2018-07-27T04:14:42.378Z,20.60
2018-07-27T04:17:10.478Z,20.60
2018-07-27T04:19:38.605Z,20.60
2018-07-27T04:24:48.275Z,20.60
2018-07-27T04:27:16.400Z,20.70
2018-07-27T04:29:44.626Z,20.70
2018-07-27T04:32:12.756Z,20.70
2018-07-27T04:34:41.090Z,20.80
2018-07-27T04:37:09.515Z,20.80
2018-07-27T04:39:37.642Z,20.80
2018-07-27T04:42:05.829Z,20.90
2018-07-27T04:47:01.944Z,21.00
2018-07-27T04:49:30.135Z,21.00
2018-07-27T04:51:58.191Z,21.10
2018-07-27T04:54:26.327Z,21.10
2018-07-27T04:56:54.440Z,21.10
2018-07-27T04:59:22.590Z,21.10
2018-07-27T05:01:50.715Z,21.10
2018-07-27T05:04:18.931Z,21.20
2018-07-27T05:06:47.058Z,21.30
2018-07-27T05:09:19.131Z,21.40
2018-07-27T05:11:47.301Z,21.40
2018-07-27T05:14:15.380Z,21.40
2018-07-27T05:16:43.524Z,21.50
2018-07-27T05:19:11.663Z,21.60
2018-07-27T05:21:39.942Z,21.70
2018-07-27T05:24:08.095Z,21.70
2018-07-27T05:26:36.272Z,21.80
2018-07-27T05:29:04.405Z,21.90
2018-07-27T05:31:32.559Z,22.00
2018-07-27T05:34:00.844Z,22.00
2018-07-27T05:36:29.199Z,22.10
2018-07-27T05:38:57.484Z,22.20
2018-07-27T05:41:32.267Z,22.30
2018-07-27T05:44:00.392Z,22.40
2018-07-27T05:46:28.521Z,22.50
2018-07-27T05:48:56.648Z,22.60
2018-07-27T05:51:24.808Z,22.60
2018-07-27T05:53:53.104Z,22.60
2018-07-27T05:56:21.235Z,22.70
2018-07-27T05:58:49.358Z,22.80
2018-07-27T06:01:17.582Z,22.90
2018-07-27T06:03:45.631Z,23.00
2018-07-27T06:06:13.772Z,23.00
2018-07-27T06:08:41.886Z,23.10
2018-07-27T06:11:10.106Z,23.10
2018-07-27T06:13:38.343Z,23.10
2018-07-27T06:16:06.691Z,23.20
2018-07-27T06:18:34.804Z,23.20
2018-07-27T06:21:03.018Z,23.40
2018-07-27T06:23:31.123Z,23.50
2018-07-27T06:25:59.274Z,23.60
2018-07-27T06:28:27.420Z,23.70
2018-07-27T06:30:55.559Z,23.80
2018-07-27T06:35:51.770Z,24.00
2018-07-27T06:38:19.880Z,24.10
2018-07-27T06:43:15.967Z,24.30
2018-07-27T06:45:44.119Z,24.40
2018-07-27T06:48:17.789Z,24.50
2018-07-27T06:50:46.991Z,24.60
2018-07-27T06:53:15.218Z,24.70
2018-07-27T06:55:43.853Z,24.80
2018-07-27T06:58:11.995Z,25.00
2018-07-27T07:00:40.147Z,25.10
2018-07-27T07:03:08.314Z,25.10
2018-07-27T07:05:36.472Z,25.30
2018-07-27T07:08:04.592Z,25.40
2018-07-27T07:10:32.989Z,25.50
2018-07-27T07:13:01.143Z,25.50
2018-07-27T07:15:29.317Z,25.70
2018-07-27T07:17:57.464Z,25.80
2018-07-27T07:20:25.763Z,25.90
2018-07-27T07:22:54.057Z,26.10
2018-07-27T07:25:22.328Z,26.20
2018-07-27T07:27:50.524Z,26.20
2018-07-27T07:30:18.647Z,26.40
2018-07-27T07:32:46.759Z,26.40
2018-07-27T07:35:14.903Z,26.50
2018-07-27T07:37:43.045Z,26.60
2018-07-27T07:40:11.150Z,26.80
2018-07-27T07:42:39.454Z,26.90
2018-07-27T07:45:07.906Z,27.10
2018-07-27T07:47:35.947Z,27.20
2018-07-27T07:50:04.524Z,27.40
2018-07-27T07:52:32.622Z,27.50
2018-07-27T07:55:00.771Z,27.70
2018-07-27T07:57:28.909Z,27.80
2018-07-27T07:59:57.016Z,27.90
2018-07-27T08:02:25.155Z,28.10
2018-07-27T08:04:53.372Z,28.20
2018-07-27T08:07:21.527Z,28.20
2018-07-27T08:09:49.646Z,28.30
2018-07-27T08:12:17.810Z,28.40
2018-07-27T08:14:46.057Z,28.60
2018-07-27T08:17:14.201Z,28.70
2018-07-27T08:19:42.414Z,28.80
2018-07-27T08:22:10.530Z,28.90
2018-07-27T08:24:38.658Z,29.00
2018-07-27T08:27:07.374Z,29.20
2018-07-27T08:29:38.622Z,29.40
2018-07-27T08:32:06.912Z,29.40
2018-07-27T08:34:35.038Z,29.60
2018-07-27T08:37:03.181Z,29.70
2018-07-27T08:39:32.545Z,29.70
2018-07-27T08:42:00.780Z,29.80
2018-07-27T08:44:30.119Z,29.90
2018-07-27T08:46:58.245Z,30.00
2018-07-27T08:49:26.358Z,30.10
2018-07-27T08:51:54.535Z,30.20
2018-07-27T08:54:22.662Z,30.30
2018-07-27T08:56:50.763Z,30.50
2018-07-27T08:59:18.877Z,30.70
2018-07-27T09:01:46.986Z,30.70
2018-07-27T09:04:15.176Z,30.90
2018-07-27T09:06:43.321Z,31.00
2018-07-27T09:09:13.178Z,31.10
2018-07-27T09:11:41.302Z,31.20
2018-07-27T09:14:09.445Z,31.40
2018-07-27T09:16:37.552Z,31.50
2018-07-27T09:19:05.724Z,31.60
2018-07-27T09:21:33.831Z,31.80
2018-07-27T09:24:01.976Z,31.80
2018-07-27T09:26:30.087Z,32.00
2018-07-27T09:28:58.231Z,32.10
2018-07-27T09:31:26.415Z,32.30
2018-07-27T09:33:54.554Z,32.40
2018-07-27T09:36:22.667Z,32.60
2018-07-27T09:38:50.787Z,32.70
2018-07-27T09:41:18.927Z,32.90
2018-07-27T09:43:47.069Z,33.00
2018-07-27T09:46:15.183Z,33.10
2018-07-27T09:48:47.530Z,33.30
2018-07-27T09:51:15.657Z,33.40
2018-07-27T09:53:43.836Z,33.50
2018-07-27T09:56:11.911Z,33.60
2018-07-27T09:58:40.050Z,33.70
2018-07-27T10:01:12.409Z,33.80
2018-07-27T10:03:40.630Z,33.80
2018-07-27T10:06:08.846Z,33.80
2018-07-27T10:08:36.999Z,34.00
2018-07-27T10:11:05.309Z,34.10
2018-07-27T10:13:33.462Z,34.20
2018-07-27T10:16:01.579Z,34.20
2018-07-27T10:18:29.719Z,34.40
2018-07-27T10:20:57.787Z,34.40
2018-07-27T10:23:25.890Z,34.50
2018-07-27T10:25:54.000Z,34.50
2018-07-27T10:28:22.093Z,34.60
2018-07-27T10:30:50.197Z,34.60
2018-07-27T10:33:18.305Z,34.80
2018-07-27T10:35:46.395Z,34.90
2018-07-27T10:38:14.531Z,35.10
2018-07-27T10:40:42.638Z,35.20
2018-07-27T10:43:10.754Z,35.30
2018-07-27T10:45:38.876Z,35.20
2018-07-27T10:48:06.994Z,35.20
2018-07-27T10:50:35.106Z,35.20
2018-07-27T10:53:03.203Z,35.30
2018-07-27T10:55:31.322Z,35.40
2018-07-27T10:57:59.435Z,35.60
2018-07-27T11:00:27.555Z,35.60
2018-07-27T11:02:55.655Z,35.80
2018-07-27T11:05:23.780Z,35.90
2018-07-27T11:07:52.216Z,36.00
2018-07-27T11:10:20.343Z,36.00
2018-07-27T11:12:48.450Z,36.20
2018-07-27T11:15:16.594Z,36.30
2018-07-27T11:17:44.792Z,36.30
2018-07-27T11:20:12.835Z,36.40
2018-07-27T11:22:40.936Z,36.40
2018-07-27T11:25:09.082Z,36.60
2018-07-27T11:27:37.183Z,36.80
2018-07-27T11:30:05.393Z,36.90
2018-07-27T11:32:33.537Z,36.90
2018-07-27T11:35:01.611Z,37.00
2018-07-27T11:37:29.793Z,37.00
2018-07-27T11:39:57.839Z,37.10
2018-07-27T11:42:26.017Z,37.20
2018-07-27T11:44:54.071Z,37.20
2018-07-27T11:47:22.186Z,37.20
2018-07-27T11:49:50.462Z,37.30
2018-07-27T11:52:18.604Z,37.40
2018-07-27T11:54:46.761Z,37.50
2018-07-27T11:57:14.862Z,37.70
2018-07-27T11:59:42.954Z,37.70
2018-07-27T12:02:11.051Z,37.70
2018-07-27T12:04:39.164Z,37.70
2018-07-27T12:07:07.348Z,37.60
2018-07-27T12:09:35.379Z,37.70
2018-07-27T12:12:03.487Z,38.00
2018-07-27T12:14:31.688Z,38.00
2018-07-27T12:16:59.766Z,38.00
2018-07-27T12:19:27.875Z,38.20
2018-07-27T12:21:55.989Z,38.40
2018-07-27T12:24:24.154Z,38.60
2018-07-27T12:26:52.267Z,38.90
2018-07-27T12:29:20.400Z,39.20
2018-07-27T12:31:48.495Z,39.30
2018-07-27T12:34:17.636Z,39.40
2018-07-27T12:36:45.735Z,39.60
2018-07-27T12:39:13.827Z,39.70
2018-07-27T12:41:42.578Z,39.80
2018-07-27T12:44:11.103Z,39.90
2018-07-27T12:46:39.729Z,40.00
2018-07-27T12:49:08.191Z,40.00
2018-07-27T12:51:36.287Z,40.10
2018-07-27T12:54:04.387Z,40.10
2018-07-27T12:56:32.491Z,40.10
2018-07-27T12:59:00.647Z,40.40
2018-07-27T13:01:28.710Z,41.20
2018-07-27T13:03:57.035Z,41.90
2018-07-27T13:06:25.283Z,42.50
2018-07-27T13:08:53.426Z,43.00
2018-07-27T13:11:21.542Z,43.00
2018-07-27T13:13:49.642Z,43.20
2018-07-27T13:16:17.785Z,43.80
2018-07-27T13:18:46.161Z,44.60
2018-07-27T13:21:14.285Z,45.00
2018-07-27T13:23:54.316Z,44.80
2018-07-27T13:28:50.550Z,44.70
2018-07-27T13:31:19.459Z,45.00
2018-07-27T13:34:00.663Z,45.40
2018-07-27T13:36:28.762Z,45.80
2018-07-27T13:38:56.873Z,46.20
2018-07-27T13:41:25.074Z,46.40
2018-07-27T13:43:53.203Z,46.80
2018-07-27T13:46:21.850Z,47.10
2018-07-27T13:48:49.966Z,47.50
2018-07-27T13:51:18.054Z,47.80
2018-07-27T13:53:46.368Z,48.10
2018-07-27T13:56:15.500Z,48.30
2018-07-27T13:58:43.715Z,48.50
2018-07-27T14:01:12.740Z,48.00
2018-07-27T14:03:40.879Z,47.50
2018-07-27T14:06:09.055Z,46.70
2018-07-27T14:08:37.168Z,46.20
2018-07-27T14:11:05.270Z,46.90
2018-07-27T14:13:33.378Z,47.50
2018-07-27T14:16:01.487Z,48.20
2018-07-27T14:18:29.599Z,48.20
2018-07-27T14:20:57.704Z,48.20
2018-07-27T14:23:26.340Z,48.70
2018-07-27T14:28:22.740Z,49.50
2018-07-27T14:30:50.842Z,49.10
2018-07-27T14:33:18.942Z,49.20
2018-07-27T14:35:47.039Z,49.80
2018-07-27T14:38:15.224Z,50.20
2018-07-27T14:40:43.331Z,50.10
2018-07-27T14:43:11.438Z,49.90
2018-07-27T14:45:39.535Z,49.80
2018-07-27T14:48:07.659Z,49.80
2018-07-27T14:50:35.735Z,50.00
2018-07-27T14:53:03.850Z,49.90
2018-07-27T14:55:31.963Z,49.90
2018-07-27T15:00:28.262Z,50.10
2018-07-27T15:02:56.416Z,50.20
2018-07-27T15:05:24.527Z,49.80
2018-07-27T15:07:52.621Z,49.40
2018-07-27T15:10:20.730Z,49.30
2018-07-27T15:12:48.842Z,48.90
2018-07-27T15:15:16.965Z,48.90
2018-07-27T15:17:45.038Z,48.70
2018-07-27T15:20:13.161Z,48.60
2018-07-27T15:22:41.279Z,48.60
2018-07-27T15:25:09.403Z,47.70
2018-07-27T15:27:38.080Z,46.70
2018-07-27T15:30:06.181Z,45.20
2018-07-27T15:32:34.277Z,43.60
2018-07-27T15:35:02.401Z,42.40
2018-07-27T15:37:30.499Z,41.50
2018-07-27T15:39:58.656Z,40.60
2018-07-27T15:42:26.774Z,40.00
2018-07-27T15:44:54.879Z,39.40
2018-07-27T15:47:22.985Z,39.00
2018-07-27T15:49:51.118Z,38.60
2018-07-27T15:52:19.215Z,38.40
2018-07-27T15:54:47.362Z,38.30
2018-07-27T15:57:15.462Z,38.20
2018-07-27T15:59:43.590Z,38.10
2018-07-27T16:02:11.919Z,38.10
2018-07-27T16:04:40.199Z,38.00
2018-07-27T16:07:08.325Z,37.80
2018-07-27T16:09:36.503Z,37.60
2018-07-27T16:12:04.622Z,37.40
2018-07-27T16:14:32.727Z,37.30
2018-07-27T16:17:00.843Z,37.20
2018-07-27T16:19:29.239Z,37.10
2018-07-27T16:21:58.272Z,37.10
2018-07-27T16:24:26.364Z,37.10
2018-07-27T16:26:54.679Z,37.10
2018-07-27T16:29:22.819Z,37.00
2018-07-27T16:31:50.951Z,37.00
2018-07-27T16:34:19.079Z,36.90
2018-07-27T16:36:48.040Z,36.80
2018-07-27T16:39:16.199Z,36.70
2018-07-27T16:41:44.281Z,36.60
2018-07-27T16:44:12.450Z,36.40
2018-07-27T16:46:40.590Z,36.30
2018-07-27T16:49:08.767Z,36.30
2018-07-27T16:51:36.867Z,36.30
2018-07-27T16:54:05.204Z,36.20
2018-07-27T16:56:33.349Z,36.10
2018-07-27T16:59:01.491Z,36.10
2018-07-27T17:01:29.619Z,36.00
2018-07-27T17:03:57.748Z,35.90
2018-07-27T17:06:25.909Z,35.80
2018-07-27T17:08:53.975Z,35.80
2018-07-27T17:11:22.098Z,35.70
2018-07-27T17:13:50.289Z,35.70
2018-07-27T17:16:18.419Z,35.70
2018-07-27T17:18:46.547Z,35.60
2018-07-27T17:21:14.663Z,35.60
2018-07-27T17:23:42.773Z,35.60
2018-07-27T17:26:11.043Z,35.50
2018-07-27T17:28:39.186Z,35.50
2018-07-27T17:31:07.367Z,35.40
2018-07-27T17:33:35.545Z,35.40
2018-07-27T17:36:03.619Z,35.30
2018-07-27T17:38:31.754Z,35.30
2018-07-27T17:40:59.892Z,35.30
2018-07-27T17:43:28.019Z,35.30
2018-07-27T17:45:56.151Z,35.20
2018-07-27T17:48:24.297Z,35.10
2018-07-27T17:50:52.378Z,35.10
2018-07-27T17:53:20.508Z,35.00
2018-07-27T17:55:48.607Z,35.00
2018-07-27T17:58:16.727Z,34.80
2018-07-27T18:00:44.847Z,34.70
2018-07-27T18:03:13.023Z,34.70
2018-07-27T18:05:42.003Z,34.70
2018-07-27T18:08:10.149Z,34.70
2018-07-27T18:10:38.271Z,34.70
2018-07-27T18:13:06.434Z,34.60
2018-07-27T18:15:34.543Z,34.50
2018-07-27T18:18:02.643Z,34.40
2018-07-27T18:20:30.747Z,34.30
2018-07-27T18:22:58.903Z,34.20
2018-07-27T18:25:27.072Z,34.20
2018-07-27T18:27:55.156Z,34.20
2018-07-27T18:30:23.317Z,34.10
2018-07-27T18:32:51.450Z,34.00
2018-07-27T18:35:19.662Z,34.00
2018-07-27T18:37:47.799Z,34.00
2018-07-27T18:40:15.899Z,33.90
2018-07-27T18:42:44.031Z,33.80
2018-07-27T18:50:08.836Z,33.60
2018-07-27T18:52:37.016Z,33.50
2018-07-27T18:55:05.621Z,33.40
2018-07-27T18:57:33.715Z,33.20
2018-07-27T19:00:01.948Z,33.10
2018-07-27T19:02:30.080Z,33.00
2018-07-27T19:04:58.211Z,32.80
2018-07-27T19:07:26.384Z,32.70
2018-07-27T19:09:54.514Z,32.60
2018-07-27T19:12:22.632Z,32.40
2018-07-27T19:14:50.771Z,32.20
2018-07-27T19:17:18.882Z,32.10
2018-07-27T19:19:47.319Z,32.00
2018-07-27T19:22:15.448Z,31.90
2018-07-27T19:24:43.584Z,31.80
2018-07-27T19:27:11.695Z,31.60
2018-07-27T19:29:39.829Z,31.50
2018-07-27T19:32:07.927Z,31.40
2018-07-27T19:34:36.055Z,31.30
2018-07-27T19:37:04.169Z,31.20
2018-07-27T19:39:32.282Z,31.10
2018-07-27T19:42:00.457Z,30.80
2018-07-27T19:44:28.564Z,30.70
2018-07-27T19:46:56.714Z,30.60
2018-07-27T19:49:24.854Z,30.50
2018-07-27T19:51:52.970Z,30.40
2018-07-27T19:54:21.155Z,30.30
2018-07-27T19:56:49.211Z,30.30
2018-07-27T19:59:17.371Z,30.20
2018-07-27T20:01:46.778Z,30.10
2018-07-27T20:04:14.916Z,30.00
2018-07-27T20:06:43.022Z,29.90
2018-07-27T20:09:11.672Z,29.80
2018-07-27T20:11:39.883Z,29.70
2018-07-27T20:14:08.184Z,29.70
2018-07-27T20:19:04.475Z,29.60
2018-07-27T20:21:32.725Z,29.50
2018-07-27T20:24:00.827Z,29.40
2018-07-27T20:26:28.940Z,29.40
2018-07-27T20:28:57.415Z,29.30
2018-07-27T20:31:25.569Z,29.20
2018-07-27T20:33:53.687Z,29.10
2018-07-27T20:36:21.819Z,29.00
2018-07-27T20:38:49.955Z,29.00
2018-07-27T20:41:18.095Z,28.90
2018-07-27T20:43:46.182Z,28.80
2018-07-27T20:48:42.271Z,28.50
2018-07-27T20:51:10.414Z,28.50
2018-07-27T20:53:38.551Z,28.40
2018-07-27T20:56:06.701Z,28.30
2018-07-27T20:58:34.791Z,28.20
2018-07-27T21:01:02.912Z,28.10
2018-07-27T21:03:31.554Z,28.00
2018-07-27T21:05:59.691Z,27.90
2018-07-27T21:08:27.815Z,27.90
2018-07-27T21:10:55.959Z,27.90
2018-07-27T21:13:24.103Z,27.80
2018-07-27T21:15:52.288Z,27.70
2018-07-27T21:18:20.454Z,27.70
2018-07-27T21:20:48.632Z,27.70
2018-07-27T21:23:16.771Z,27.70
2018-07-27T21:25:44.882Z,27.70
2018-07-27T21:28:13.023Z,27.60
2018-07-27T21:30:41.151Z,27.60
2018-07-27T21:35:40.191Z,27.50
2018-07-27T21:38:08.431Z,27.40
2018-07-27T21:40:36.715Z,27.40
2018-07-27T21:43:04.850Z,27.30
2018-07-27T21:45:32.947Z,27.30
2018-07-27T21:48:01.104Z,27.30
2018-07-27T21:50:29.263Z,27.20
2018-07-27T21:52:57.405Z,27.10
2018-07-27T21:55:25.537Z,27.10
2018-07-27T21:57:53.730Z,27.10
2018-07-27T22:00:21.866Z,27.00
2018-07-27T22:02:50.007Z,26.90
2018-07-27T22:05:18.141Z,26.90
2018-07-27T22:07:46.517Z,26.90
2018-07-27T22:10:14.660Z,26.90
2018-07-27T22:12:42.798Z,26.80
2018-07-27T22:15:15.195Z,26.80
2018-07-27T22:17:43.327Z,26.70
2018-07-27T22:20:11.428Z,26.70
2018-07-27T22:22:39.552Z,26.70
2018-07-27T22:25:07.658Z,26.60
2018-07-27T22:27:35.788Z,26.60
2018-07-27T22:30:04.559Z,26.70
2018-07-27T22:32:32.700Z,26.60
2018-07-27T22:35:00.811Z,26.60
2018-07-27T22:37:28.946Z,26.50
2018-07-27T22:39:57.035Z,26.40
2018-07-27T22:42:25.140Z,26.40
2018-07-27T22:44:53.259Z,26.40
2018-07-27T22:47:21.367Z,26.50
2018-07-27T22:49:49.474Z,26.50
2018-07-27T22:52:17.573Z,26.50
2018-07-27T22:54:45.674Z,26.50
2018-07-27T22:57:13.806Z,26.40
2018-07-27T22:59:41.921Z,26.40
2018-07-27T23:02:10.044Z,26.40
2018-07-27T23:04:38.159Z,26.40
2018-07-27T23:07:06.309Z,26.40
2018-07-27T23:09:34.435Z,26.40
2018-07-27T23:12:02.591Z,26.30
2018-07-27T23:14:30.703Z,26.30
2018-07-27T23:16:58.806Z,26.30
2018-07-27T23:19:26.915Z,26.30
2018-07-27T23:21:55.023Z,26.20
2018-07-27T23:24:23.166Z,26.20
2018-07-27T23:26:51.283Z,26.20
2018-07-27T23:29:19.600Z,26.10
2018-07-27T23:31:47.711Z,26.10
2018-07-27T23:34:15.828Z,26.10
2018-07-27T23:36:43.928Z,26.10
2018-07-27T23:39:13.738Z,26.00
2018-07-27T23:41:42.198Z,25.90
2018-07-27T23:44:10.339Z,25.90
2018-07-27T23:46:38.546Z,25.90
2018-07-27T23:49:06.669Z,25.80
2018-07-27T23:51:34.767Z,25.80
2018-07-27T23:54:02.897Z,25.70
2018-07-27T23:56:31.005Z,25.70
2018-07-27T23:58:59.231Z,25.60
